sensor_id;sensor_type;location;lat;lon;timestamp;P1;durP1;ratioP1;P2;durP2;ratioP2
18364;SDS011;9309;52.126;11.616;2023-03-01T00:00:44;25.50;;;13.73;;
18364;SDS011;9309;52.126;11.616;2023-03-01T00:03:11;31.27;;;14.10;;
18364;SDS011;9309;52.126;11.616;2023-03-01T00:05:43;29.70;;;14.60;;
18364;SDS011;9309;52.126;11.616;2023-03-01T00:08:10;26.63;;;14.53;;
18364;SDS011;9309;52.126;11.616;2023-03-01T00:10:37;22.67;;;13.07;;
18364;SDS011;9309;52.126;11.616;2023-03-01T00:13:04;27.83;;;13.47;;
18364;SDS011;9309;52.126;11.616;2023-03-01T00:15:32;26.20;;;13.23;;
18364;SDS011;9309;52.126;11.616;2023-03-01T00:17:59;20.43;;;11.63;;
18364;SDS011;9309;52.126;11.616;2023-03-01T00:20:26;24.30;;;12.00;;
18364;SDS011;9309;52.126;11.616;2023-03-01T00:22:53;23.70;;;12.50;;
18364;SDS011;9309;52.126;11.616;2023-03-01T00:25:19;30.70;;;12.80;;
18364;SDS011;9309;52.126;11.616;2023-03-01T00:27:46;22.70;;;12.63;;
18364;SDS011;9309;52.126;11.616;2023-03-01T00:30:14;22.33;;;12.13;;
18364;SDS011;9309;52.126;11.616;2023-03-01T00:32:42;26.10;;;12.20;;
18364;SDS011;9309;52.126;11.616;2023-03-01T00:35:09;23.40;;;11.93;;
18364;SDS011;9309;52.126;11.616;2023-03-01T00:37:35;23.27;;;11.73;;
18364;SDS011;9309;52.126;11.616;2023-03-01T00:40:02;24.57;;;11.77;;
18364;SDS011;9309;52.126;11.616;2023-03-01T00:42:31;21.47;;;11.87;;
18364;SDS011;9309;52.126;11.616;2023-03-01T00:44:58;26.13;;;12.00;;
18364;SDS011;9309;52.126;11.616;2023-03-01T00:47:25;23.87;;;12.73;;
18364;SDS011;9309;52.126;11.616;2023-03-01T00:49:53;28.20;;;13.33;;
18364;SDS011;9309;52.126;11.616;2023-03-01T00:52:20;23.60;;;11.47;;
18364;SDS011;9309;52.126;11.616;2023-03-01T00:54:47;20.60;;;11.47;;
18364;SDS011;9309;52.126;11.616;2023-03-01T00:57:13;21.73;;;10.67;;
18364;SDS011;9309;52.126;11.616;2023-03-01T00:59:40;22.53;;;11.07;;
18364;SDS011;9309;52.126;11.616;2023-03-01T01:02:07;18.90;;;10.87;;
18364;SDS011;9309;52.126;11.616;2023-03-01T01:04:33;18.93;;;11.13;;
18364;SDS011;9309;52.126;11.616;2023-03-01T01:07:01;20.53;;;11.40;;
18364;SDS011;9309;52.126;11.616;2023-03-01T01:09:28;23.87;;;12.17;;
18364;SDS011;9309;52.126;11.616;2023-03-01T01:11:54;21.70;;;11.73;;
18364;SDS011;9309;52.126;11.616;2023-03-01T01:14:21;21.23;;;11.93;;
18364;SDS011;9309;52.126;11.616;2023-03-01T01:16:48;31.63;;;12.87;;
18364;SDS011;9309;52.126;11.616;2023-03-01T01:19:14;21.83;;;11.33;;
18364;SDS011;9309;52.126;11.616;2023-03-01T01:21:41;21.80;;;11.63;;
18364;SDS011;9309;52.126;11.616;2023-03-01T01:24:09;39.13;;;13.37;;
18364;SDS011;9309;52.126;11.616;2023-03-01T01:26:36;28.37;;;12.57;;
18364;SDS011;9309;52.126;11.616;2023-03-01T01:29:03;20.43;;;11.83;;
18364;SDS011;9309;52.126;11.616;2023-03-01T01:31:31;23.70;;;12.43;;
18364;SDS011;9309;52.126;11.616;2023-03-01T01:33:59;20.97;;;10.93;;
18364;SDS011;9309;52.126;11.616;2023-03-01T01:36:27;20.87;;;11.60;;
18364;SDS011;9309;52.126;11.616;2023-03-01T01:38:54;21.07;;;10.77;;
18364;SDS011;9309;52.126;11.616;2023-03-01T01:41:23;21.20;;;10.60;;
18364;SDS011;9309;52.126;11.616;2023-03-01T01:46:57;20.33;;;11.27;;
18364;SDS011;9309;52.126;11.616;2023-03-01T01:49:29;22.67;;;12.23;;
18364;SDS011;9309;52.126;11.616;2023-03-01T01:52:04;18.27;;;10.90;;
18364;SDS011;9309;52.126;11.616;2023-03-01T01:54:38;20.10;;;10.63;;
18364;SDS011;9309;52.126;11.616;2023-03-01T01:57:10;22.07;;;11.17;;
18364;SDS011;9309;52.126;11.616;2023-03-01T01:59:39;17.90;;;10.77;;
18364;SDS011;9309;52.126;11.616;2023-03-01T02:02:11;16.60;;;10.60;;
18364;SDS011;9309;52.126;11.616;2023-03-01T02:04:38;18.60;;;10.37;;
18364;SDS011;9309;52.126;11.616;2023-03-01T02:07:07;22.00;;;10.30;;
18364;SDS011;9309;52.126;11.616;2023-03-01T02:09:37;17.20;;;10.00;;
18364;SDS011;9309;52.126;11.616;2023-03-01T02:12:04;19.43;;;10.53;;
18364;SDS011;9309;52.126;11.616;2023-03-01T02:14:34;18.80;;;9.97;;
18364;SDS011;9309;52.126;11.616;2023-03-01T02:17:00;22.53;;;11.20;;
18364;SDS011;9309;52.126;11.616;2023-03-01T02:19:31;17.20;;;9.43;;
18364;SDS011;9309;52.126;11.616;2023-03-01T02:22:11;18.10;;;9.37;;
18364;SDS011;9309;52.126;11.616;2023-03-01T02:24:47;17.20;;;10.20;;
18364;SDS011;9309;52.126;11.616;2023-03-01T02:27:28;16.27;;;10.10;;
18364;SDS011;9309;52.126;11.616;2023-03-01T02:30:04;18.23;;;10.17;;
18364;SDS011;9309;52.126;11.616;2023-03-01T02:32:32;17.77;;;10.27;;
18364;SDS011;9309;52.126;11.616;2023-03-01T02:34:59;14.87;;;9.80;;
18364;SDS011;9309;52.126;11.616;2023-03-01T02:37:26;17.50;;;9.80;;
18364;SDS011;9309;52.126;11.616;2023-03-01T02:39:56;19.97;;;10.33;;
18364;SDS011;9309;52.126;11.616;2023-03-01T02:42:26;20.83;;;10.53;;
18364;SDS011;9309;52.126;11.616;2023-03-01T02:44:58;16.37;;;9.83;;
18364;SDS011;9309;52.126;11.616;2023-03-01T02:47:26;19.17;;;10.27;;
18364;SDS011;9309;52.126;11.616;2023-03-01T02:49:53;21.47;;;9.80;;
18364;SDS011;9309;52.126;11.616;2023-03-01T02:52:22;18.50;;;9.97;;
18364;SDS011;9309;52.126;11.616;2023-03-01T02:55:01;19.33;;;9.73;;
18364;SDS011;9309;52.126;11.616;2023-03-01T02:57:31;15.60;;;9.73;;
18364;SDS011;9309;52.126;11.616;2023-03-01T02:59:59;16.47;;;9.67;;
18364;SDS011;9309;52.126;11.616;2023-03-01T03:02:34;16.93;;;10.00;;
18364;SDS011;9309;52.126;11.616;2023-03-01T03:05:06;18.43;;;9.70;;
18364;SDS011;9309;52.126;11.616;2023-03-01T03:07:35;19.20;;;9.67;;
18364;SDS011;9309;52.126;11.616;2023-03-01T03:10:06;16.23;;;9.33;;
18364;SDS011;9309;52.126;11.616;2023-03-01T03:12:36;15.17;;;8.63;;
18364;SDS011;9309;52.126;11.616;2023-03-01T03:15:04;16.13;;;9.47;;
18364;SDS011;9309;52.126;11.616;2023-03-01T03:17:35;15.83;;;9.40;;
18364;SDS011;9309;52.126;11.616;2023-03-01T03:20:02;24.83;;;9.83;;
18364;SDS011;9309;52.126;11.616;2023-03-01T03:22:30;13.47;;;9.33;;
18364;SDS011;9309;52.126;11.616;2023-03-01T03:24:56;14.70;;;9.23;;
18364;SDS011;9309;52.126;11.616;2023-03-01T03:27:23;13.83;;;9.10;;
18364;SDS011;9309;52.126;11.616;2023-03-01T03:29:50;17.17;;;9.57;;
18364;SDS011;9309;52.126;11.616;2023-03-01T03:32:16;16.27;;;9.10;;
18364;SDS011;9309;52.126;11.616;2023-03-01T03:34:44;17.47;;;9.37;;
18364;SDS011;9309;52.126;11.616;2023-03-01T03:37:11;15.53;;;8.83;;
18364;SDS011;9309;52.126;11.616;2023-03-01T03:39:52;20.90;;;9.53;;
18364;SDS011;9309;52.126;11.616;2023-03-01T03:42:19;18.70;;;9.57;;
18364;SDS011;9309;52.126;11.616;2023-03-01T03:44:46;17.13;;;8.87;;
18364;SDS011;9309;52.126;11.616;2023-03-01T03:47:13;14.83;;;9.77;;
18364;SDS011;9309;52.126;11.616;2023-03-01T03:49:40;15.77;;;9.17;;
18364;SDS011;9309;52.126;11.616;2023-03-01T03:52:08;17.80;;;10.10;;
18364;SDS011;9309;52.126;11.616;2023-03-01T03:54:38;15.00;;;9.40;;
18364;SDS011;9309;52.126;11.616;2023-03-01T03:57:05;20.10;;;9.90;;
18364;SDS011;9309;52.126;11.616;2023-03-01T03:59:32;12.83;;;8.50;;
18364;SDS011;9309;52.126;11.616;2023-03-01T04:01:58;15.07;;;9.17;;
18364;SDS011;9309;52.126;11.616;2023-03-01T04:04:25;19.33;;;9.50;;
18364;SDS011;9309;52.126;11.616;2023-03-01T04:06:52;13.90;;;8.20;;
18364;SDS011;9309;52.126;11.616;2023-03-01T04:09:20;16.10;;;8.87;;
18364;SDS011;9309;52.126;11.616;2023-03-01T04:11:46;18.90;;;9.67;;
18364;SDS011;9309;52.126;11.616;2023-03-01T04:14:13;19.97;;;9.87;;
18364;SDS011;9309;52.126;11.616;2023-03-01T04:16:39;13.60;;;8.77;;
18364;SDS011;9309;52.126;11.616;2023-03-01T04:19:06;14.90;;;9.40;;
18364;SDS011;9309;52.126;11.616;2023-03-01T04:21:34;21.27;;;10.07;;
18364;SDS011;9309;52.126;11.616;2023-03-01T04:24:02;17.83;;;9.00;;
18364;SDS011;9309;52.126;11.616;2023-03-01T04:26:30;15.83;;;9.37;;
18364;SDS011;9309;52.126;11.616;2023-03-01T04:28:56;16.47;;;9.03;;
18364;SDS011;9309;52.126;11.616;2023-03-01T04:31:23;12.77;;;8.93;;
18364;SDS011;9309;52.126;11.616;2023-03-01T04:33:50;12.17;;;8.50;;
18364;SDS011;9309;52.126;11.616;2023-03-01T04:36:18;16.50;;;9.27;;
18364;SDS011;9309;52.126;11.616;2023-03-01T04:38:46;17.63;;;10.10;;
18364;SDS011;9309;52.126;11.616;2023-03-01T04:41:14;14.57;;;9.37;;
18364;SDS011;9309;52.126;11.616;2023-03-01T04:43:44;17.17;;;9.50;;
18364;SDS011;9309;52.126;11.616;2023-03-01T04:46:11;15.27;;;9.03;;
18364;SDS011;9309;52.126;11.616;2023-03-01T04:48:40;13.40;;;9.10;;
18364;SDS011;9309;52.126;11.616;2023-03-01T04:51:08;13.23;;;8.43;;
18364;SDS011;9309;52.126;11.616;2023-03-01T04:53:35;16.13;;;8.27;;
18364;SDS011;9309;52.126;11.616;2023-03-01T04:56:02;18.47;;;8.97;;
18364;SDS011;9309;52.126;11.616;2023-03-01T04:58:29;14.07;;;9.27;;
18364;SDS011;9309;52.126;11.616;2023-03-01T05:00:57;16.27;;;8.90;;
18364;SDS011;9309;52.126;11.616;2023-03-01T05:03:24;17.10;;;8.57;;
18364;SDS011;9309;52.126;11.616;2023-03-01T05:05:51;16.07;;;9.27;;
18364;SDS011;9309;52.126;11.616;2023-03-01T05:08:18;22.27;;;9.13;;
18364;SDS011;9309;52.126;11.616;2023-03-01T05:10:46;17.93;;;9.13;;
18364;SDS011;9309;52.126;11.616;2023-03-01T05:13:16;12.37;;;8.80;;
18364;SDS011;9309;52.126;11.616;2023-03-01T05:15:46;15.57;;;8.27;;
18364;SDS011;9309;52.126;11.616;2023-03-01T05:18:15;18.93;;;8.67;;
18364;SDS011;9309;52.126;11.616;2023-03-01T05:20:42;15.73;;;8.50;;
18364;SDS011;9309;52.126;11.616;2023-03-01T05:23:09;17.07;;;8.50;;
18364;SDS011;9309;52.126;11.616;2023-03-01T05:25:36;16.00;;;8.77;;
18364;SDS011;9309;52.126;11.616;2023-03-01T05:28:05;21.90;;;8.80;;
18364;SDS011;9309;52.126;11.616;2023-03-01T05:30:34;18.00;;;8.40;;
18364;SDS011;9309;52.126;11.616;2023-03-01T05:33:04;16.70;;;9.33;;
18364;SDS011;9309;52.126;11.616;2023-03-01T05:35:36;19.17;;;8.90;;
18364;SDS011;9309;52.126;11.616;2023-03-01T05:38:03;15.13;;;8.90;;
18364;SDS011;9309;52.126;11.616;2023-03-01T05:40:29;13.50;;;8.77;;
18364;SDS011;9309;52.126;11.616;2023-03-01T05:42:59;20.73;;;9.07;;
18364;SDS011;9309;52.126;11.616;2023-03-01T05:45:27;13.50;;;8.60;;
18364;SDS011;9309;52.126;11.616;2023-03-01T05:47:54;13.80;;;8.00;;
18364;SDS011;9309;52.126;11.616;2023-03-01T05:50:22;19.27;;;9.47;;
18364;SDS011;9309;52.126;11.616;2023-03-01T05:52:55;18.80;;;9.73;;
18364;SDS011;9309;52.126;11.616;2023-03-01T05:55:24;20.47;;;9.50;;
18364;SDS011;9309;52.126;11.616;2023-03-01T05:57:50;20.37;;;9.93;;
18364;SDS011;9309;52.126;11.616;2023-03-01T06:00:18;16.63;;;9.57;;
18364;SDS011;9309;52.126;11.616;2023-03-01T06:02:48;20.43;;;9.73;;
18364;SDS011;9309;52.126;11.616;2023-03-01T06:05:15;24.73;;;10.43;;
18364;SDS011;9309;52.126;11.616;2023-03-01T06:07:41;30.43;;;12.10;;
18364;SDS011;9309;52.126;11.616;2023-03-01T06:10:11;26.27;;;11.03;;
18364;SDS011;9309;52.126;11.616;2023-03-01T06:12:39;19.83;;;10.23;;
18364;SDS011;9309;52.126;11.616;2023-03-01T06:15:07;23.87;;;10.40;;
18364;SDS011;9309;52.126;11.616;2023-03-01T06:17:35;22.47;;;10.47;;
18364;SDS011;9309;52.126;11.616;2023-03-01T06:20:03;23.63;;;10.43;;
18364;SDS011;9309;52.126;11.616;2023-03-01T06:22:31;21.70;;;10.80;;
18364;SDS011;9309;52.126;11.616;2023-03-01T06:24:58;20.33;;;10.07;;
18364;SDS011;9309;52.126;11.616;2023-03-01T06:27:26;17.60;;;9.47;;
18364;SDS011;9309;52.126;11.616;2023-03-01T06:29:52;13.47;;;10.17;;
18364;SDS011;9309;52.126;11.616;2023-03-01T06:32:19;22.93;;;10.20;;
18364;SDS011;9309;52.126;11.616;2023-03-01T06:34:46;21.80;;;9.97;;
18364;SDS011;9309;52.126;11.616;2023-03-01T06:37:13;21.73;;;9.83;;
18364;SDS011;9309;52.126;11.616;2023-03-01T06:39:39;21.70;;;10.67;;
18364;SDS011;9309;52.126;11.616;2023-03-01T06:42:07;22.77;;;9.70;;
18364;SDS011;9309;52.126;11.616;2023-03-01T06:44:36;19.03;;;10.43;;
18364;SDS011;9309;52.126;11.616;2023-03-01T06:47:03;27.97;;;10.83;;
18364;SDS011;9309;52.126;11.616;2023-03-01T06:49:30;23.60;;;10.23;;
18364;SDS011;9309;52.126;11.616;2023-03-01T06:51:56;24.83;;;10.90;;
18364;SDS011;9309;52.126;11.616;2023-03-01T06:54:23;15.40;;;10.23;;
18364;SDS011;9309;52.126;11.616;2023-03-01T06:56:50;35.30;;;11.93;;
18364;SDS011;9309;52.126;11.616;2023-03-01T06:59:17;22.17;;;11.07;;
18364;SDS011;9309;52.126;11.616;2023-03-01T07:01:45;18.23;;;9.93;;
18364;SDS011;9309;52.126;11.616;2023-03-01T07:04:12;22.00;;;11.27;;
18364;SDS011;9309;52.126;11.616;2023-03-01T07:06:39;27.67;;;13.87;;
18364;SDS011;9309;52.126;11.616;2023-03-01T07:09:06;29.70;;;12.77;;
18364;SDS011;9309;52.126;11.616;2023-03-01T07:11:32;28.80;;;12.10;;
18364;SDS011;9309;52.126;11.616;2023-03-01T07:13:59;25.03;;;11.23;;
18364;SDS011;9309;52.126;11.616;2023-03-01T07:16:26;15.67;;;9.30;;
18364;SDS011;9309;52.126;11.616;2023-03-01T07:18:54;19.13;;;10.07;;
18364;SDS011;9309;52.126;11.616;2023-03-01T07:21:20;20.50;;;9.37;;
18364;SDS011;9309;52.126;11.616;2023-03-01T07:23:47;20.73;;;10.30;;
18364;SDS011;9309;52.126;11.616;2023-03-01T07:26:14;19.13;;;10.37;;
18364;SDS011;9309;52.126;11.616;2023-03-01T07:28:41;22.13;;;10.20;;
18364;SDS011;9309;52.126;11.616;2023-03-01T07:31:08;16.17;;;10.23;;
18364;SDS011;9309;52.126;11.616;2023-03-01T07:33:34;19.57;;;10.60;;
18364;SDS011;9309;52.126;11.616;2023-03-01T07:36:03;19.70;;;9.67;;
18364;SDS011;9309;52.126;11.616;2023-03-01T07:38:31;20.63;;;9.93;;
18364;SDS011;9309;52.126;11.616;2023-03-01T07:40:58;16.03;;;9.03;;
18364;SDS011;9309;52.126;11.616;2023-03-01T07:43:25;16.67;;;9.47;;
18364;SDS011;9309;52.126;11.616;2023-03-01T07:45:52;19.03;;;10.33;;
18364;SDS011;9309;52.126;11.616;2023-03-01T07:48:19;16.97;;;9.23;;
18364;SDS011;9309;52.126;11.616;2023-03-01T07:50:45;13.80;;;9.03;;
18364;SDS011;9309;52.126;11.616;2023-03-01T07:53:13;19.37;;;8.57;;
18364;SDS011;9309;52.126;11.616;2023-03-01T07:55:40;19.50;;;8.60;;
18364;SDS011;9309;52.126;11.616;2023-03-01T07:58:07;16.13;;;9.07;;
18364;SDS011;9309;52.126;11.616;2023-03-01T08:00:33;16.93;;;9.07;;
18364;SDS011;9309;52.126;11.616;2023-03-01T08:03:00;22.37;;;8.53;;
18364;SDS011;9309;52.126;11.616;2023-03-01T08:05:27;22.30;;;9.17;;
18364;SDS011;9309;52.126;11.616;2023-03-01T08:07:54;17.63;;;8.53;;
18364;SDS011;9309;52.126;11.616;2023-03-01T08:10:22;14.53;;;7.97;;
18364;SDS011;9309;52.126;11.616;2023-03-01T08:12:50;17.97;;;8.10;;
18364;SDS011;9309;52.126;11.616;2023-03-01T08:15:17;18.97;;;8.30;;
18364;SDS011;9309;52.126;11.616;2023-03-01T08:17:44;16.93;;;9.20;;
18364;SDS011;9309;52.126;11.616;2023-03-01T08:20:11;24.33;;;8.93;;
18364;SDS011;9309;52.126;11.616;2023-03-01T08:22:38;28.30;;;9.77;;
18364;SDS011;9309;52.126;11.616;2023-03-01T08:25:05;19.47;;;9.07;;
18364;SDS011;9309;52.126;11.616;2023-03-01T08:27:33;19.77;;;9.10;;
18364;SDS011;9309;52.126;11.616;2023-03-01T08:30:00;12.47;;;8.50;;
18364;SDS011;9309;52.126;11.616;2023-03-01T08:32:26;27.30;;;9.00;;
18364;SDS011;9309;52.126;11.616;2023-03-01T08:34:53;24.30;;;9.43;;
18364;SDS011;9309;52.126;11.616;2023-03-01T08:37:20;16.00;;;9.23;;
18364;SDS011;9309;52.126;11.616;2023-03-01T08:39:46;14.80;;;8.87;;
18364;SDS011;9309;52.126;11.616;2023-03-01T08:42:13;14.50;;;8.83;;
18364;SDS011;9309;52.126;11.616;2023-03-01T08:44:41;17.57;;;8.80;;
18364;SDS011;9309;52.126;11.616;2023-03-01T08:47:08;20.97;;;9.00;;
18364;SDS011;9309;52.126;11.616;2023-03-01T08:49:34;20.60;;;8.83;;
18364;SDS011;9309;52.126;11.616;2023-03-01T08:52:01;24.83;;;8.30;;
18364;SDS011;9309;52.126;11.616;2023-03-01T08:54:28;19.20;;;8.20;;
18364;SDS011;9309;52.126;11.616;2023-03-01T08:56:55;9.97;;;7.63;;
18364;SDS011;9309;52.126;11.616;2023-03-01T08:59:24;12.20;;;8.00;;
18364;SDS011;9309;52.126;11.616;2023-03-01T09:01:53;18.03;;;8.63;;
18364;SDS011;9309;52.126;11.616;2023-03-01T09:04:20;16.90;;;7.90;;
18364;SDS011;9309;52.126;11.616;2023-03-01T09:06:47;19.40;;;7.77;;
18364;SDS011;9309;52.126;11.616;2023-03-01T09:09:14;22.13;;;7.70;;
18364;SDS011;9309;52.126;11.616;2023-03-01T09:11:42;17.83;;;8.07;;
18364;SDS011;9309;52.126;11.616;2023-03-01T09:14:11;12.00;;;6.83;;
18364;SDS011;9309;52.126;11.616;2023-03-01T09:16:38;16.93;;;7.03;;
18364;SDS011;9309;52.126;11.616;2023-03-01T09:19:06;14.37;;;7.73;;
18364;SDS011;9309;52.126;11.616;2023-03-01T09:21:33;11.60;;;6.77;;
18364;SDS011;9309;52.126;11.616;2023-03-01T09:23:59;24.17;;;8.20;;
18364;SDS011;9309;52.126;11.616;2023-03-01T09:26:29;15.63;;;7.63;;
18364;SDS011;9309;52.126;11.616;2023-03-01T09:28:59;8.87;;;5.90;;
18364;SDS011;9309;52.126;11.616;2023-03-01T09:31:28;11.73;;;6.77;;
18364;SDS011;9309;52.126;11.616;2023-03-01T09:33:55;15.43;;;6.73;;
18364;SDS011;9309;52.126;11.616;2023-03-01T09:36:24;13.67;;;6.77;;
18364;SDS011;9309;52.126;11.616;2023-03-01T09:38:51;16.00;;;7.60;;
18364;SDS011;9309;52.126;11.616;2023-03-01T09:41:22;18.33;;;6.70;;
18364;SDS011;9309;52.126;11.616;2023-03-01T09:44:01;13.33;;;6.97;;
18364;SDS011;9309;52.126;11.616;2023-03-01T09:46:37;15.53;;;6.37;;
18364;SDS011;9309;52.126;11.616;2023-03-01T09:49:10;20.03;;;6.73;;
18364;SDS011;9309;52.126;11.616;2023-03-01T09:51:43;12.20;;;7.00;;
18364;SDS011;9309;52.126;11.616;2023-03-01T09:54:19;10.67;;;6.37;;
18364;SDS011;9309;52.126;11.616;2023-03-01T09:56:59;12.20;;;6.07;;
18364;SDS011;9309;52.126;11.616;2023-03-01T09:59:33;12.10;;;6.57;;
18364;SDS011;9309;52.126;11.616;2023-03-01T10:02:14;9.23;;;5.63;;
18364;SDS011;9309;52.126;11.616;2023-03-01T10:04:50;13.93;;;6.43;;
18364;SDS011;9309;52.126;11.616;2023-03-01T10:07:22;9.90;;;5.60;;
18364;SDS011;9309;52.126;11.616;2023-03-01T10:09:58;11.93;;;5.70;;
18364;SDS011;9309;52.126;11.616;2023-03-01T10:12:27;9.13;;;5.47;;
18364;SDS011;9309;52.126;11.616;2023-03-01T10:15:04;10.63;;;5.77;;
18364;SDS011;9309;52.126;11.616;2023-03-01T10:17:36;11.73;;;6.17;;
18364;SDS011;9309;52.126;11.616;2023-03-01T10:20:14;9.07;;;5.43;;
18364;SDS011;9309;52.126;11.616;2023-03-01T10:22:45;9.03;;;5.93;;
18364;SDS011;9309;52.126;11.616;2023-03-01T10:25:15;8.07;;;5.97;;
18364;SDS011;9309;52.126;11.616;2023-03-01T10:27:48;8.40;;;5.47;;
18364;SDS011;9309;52.126;11.616;2023-03-01T10:30:19;10.67;;;5.47;;
18364;SDS011;9309;52.126;11.616;2023-03-01T10:32:48;9.57;;;5.50;;
18364;SDS011;9309;52.126;11.616;2023-03-01T10:35:18;12.60;;;5.90;;
18364;SDS011;9309;52.126;11.616;2023-03-01T10:37:58;9.10;;;5.57;;
18364;SDS011;9309;52.126;11.616;2023-03-01T10:40:30;12.33;;;5.43;;
18364;SDS011;9309;52.126;11.616;2023-03-01T10:42:57;8.47;;;5.77;;
18364;SDS011;9309;52.126;11.616;2023-03-01T10:45:30;11.87;;;6.13;;
18364;SDS011;9309;52.126;11.616;2023-03-01T10:48:03;9.33;;;5.87;;
18364;SDS011;9309;52.126;11.616;2023-03-01T10:50:31;12.10;;;6.57;;
18364;SDS011;9309;52.126;11.616;2023-03-01T10:53:00;10.67;;;6.67;;
18364;SDS011;9309;52.126;11.616;2023-03-01T10:55:30;8.53;;;5.40;;
18364;SDS011;9309;52.126;11.616;2023-03-01T10:58:07;8.40;;;5.17;;
18364;SDS011;9309;52.126;11.616;2023-03-01T11:00:48;6.70;;;5.53;;
18364;SDS011;9309;52.126;11.616;2023-03-01T11:03:19;31.93;;;7.93;;
18364;SDS011;9309;52.126;11.616;2023-03-01T11:05:53;14.10;;;6.10;;
18364;SDS011;9309;52.126;11.616;2023-03-01T11:08:33;14.00;;;6.53;;
18364;SDS011;9309;52.126;11.616;2023-03-01T11:11:09;9.13;;;5.43;;
18364;SDS011;9309;52.126;11.616;2023-03-01T11:13:49;8.50;;;5.50;;
18364;SDS011;9309;52.126;11.616;2023-03-01T11:16:25;11.20;;;5.87;;
18364;SDS011;9309;52.126;11.616;2023-03-01T11:18:57;10.30;;;5.57;;
18364;SDS011;9309;52.126;11.616;2023-03-01T11:21:28;11.13;;;5.33;;
18364;SDS011;9309;52.126;11.616;2023-03-01T11:23:58;14.33;;;5.00;;
18364;SDS011;9309;52.126;11.616;2023-03-01T11:26:27;14.07;;;5.63;;
18364;SDS011;9309;52.126;11.616;2023-03-01T11:28:57;6.70;;;5.00;;
18364;SDS011;9309;52.126;11.616;2023-03-01T11:31:30;8.63;;;4.80;;
18364;SDS011;9309;52.126;11.616;2023-03-01T11:33:59;6.93;;;4.53;;
18364;SDS011;9309;52.126;11.616;2023-03-01T11:36:32;8.33;;;4.70;;
18364;SDS011;9309;52.126;11.616;2023-03-01T11:39:12;10.07;;;5.20;;
18364;SDS011;9309;52.126;11.616;2023-03-01T11:41:47;7.87;;;4.90;;
18364;SDS011;9309;52.126;11.616;2023-03-01T11:44:19;10.73;;;4.93;;
18364;SDS011;9309;52.126;11.616;2023-03-01T11:46:51;10.03;;;5.27;;
18364;SDS011;9309;52.126;11.616;2023-03-01T11:49:38;8.50;;;5.33;;
18364;SDS011;9309;52.126;11.616;2023-03-01T11:52:22;5.47;;;4.97;;
18364;SDS011;9309;52.126;11.616;2023-03-01T11:55:04;9.70;;;5.50;;
18364;SDS011;9309;52.126;11.616;2023-03-01T11:57:47;8.47;;;4.97;;
18364;SDS011;9309;52.126;11.616;2023-03-01T12:03:23;11.53;;;5.17;;
18364;SDS011;9309;52.126;11.616;2023-03-01T12:06:00;7.38;;;4.25;;
18364;SDS011;9309;52.126;11.616;2023-03-01T12:08:50;5.45;;;4.70;;
18364;SDS011;9309;52.126;11.616;2023-03-01T12:11:32;7.57;;;5.30;;
18364;SDS011;9309;52.126;11.616;2023-03-01T12:14:17;9.10;;;5.00;;
18364;SDS011;9309;52.126;11.616;2023-03-01T12:20:00;7.15;;;4.90;;
18364;SDS011;9309;52.126;11.616;2023-03-01T12:22:44;6.03;;;4.45;;
18364;SDS011;9309;52.126;11.616;2023-03-01T12:25:25;5.47;;;4.22;;
18364;SDS011;9309;52.126;11.616;2023-03-01T12:28:07;6.28;;;5.30;;
18364;SDS011;9309;52.126;11.616;2023-03-01T12:31:11;7.88;;;4.50;;
18364;SDS011;9309;52.126;11.616;2023-03-01T12:33:59;6.07;;;4.47;;
18364;SDS011;9309;52.126;11.616;2023-03-01T12:39:32;4.22;;;3.83;;
18364;SDS011;9309;52.126;11.616;2023-03-01T12:42:10;11.35;;;4.70;;
18364;SDS011;9309;52.126;11.616;2023-03-01T12:45:01;6.07;;;4.55;;
18364;SDS011;9309;52.126;11.616;2023-03-01T12:47:55;9.02;;;4.80;;
18364;SDS011;9309;52.126;11.616;2023-03-01T12:50:36;7.32;;;4.15;;
18364;SDS011;9309;52.126;11.616;2023-03-01T12:53:07;7.43;;;3.97;;
18364;SDS011;9309;52.126;11.616;2023-03-01T12:55:43;9.98;;;4.55;;
18364;SDS011;9309;52.126;11.616;2023-03-01T12:58:13;6.60;;;4.20;;
18364;SDS011;9309;52.126;11.616;2023-03-01T13:00:53;6.57;;;3.85;;
18364;SDS011;9309;52.126;11.616;2023-03-01T13:03:29;4.45;;;3.80;;
18364;SDS011;9309;52.126;11.616;2023-03-01T13:06:07;4.78;;;4.28;;
18364;SDS011;9309;52.126;11.616;2023-03-01T13:08:39;15.07;;;5.32;;
18364;SDS011;9309;52.126;11.616;2023-03-01T13:11:13;7.50;;;4.20;;
18364;SDS011;9309;52.126;11.616;2023-03-01T13:13:43;8.05;;;4.53;;
18364;SDS011;9309;52.126;11.616;2023-03-01T13:16:38;4.88;;;3.78;;
18364;SDS011;9309;52.126;11.616;2023-03-01T13:19:11;5.28;;;3.95;;
18364;SDS011;9309;52.126;11.616;2023-03-01T13:21:40;5.38;;;3.85;;
18364;SDS011;9309;52.126;11.616;2023-03-01T13:29:43;6.03;;;3.88;;
18364;SDS011;9309;52.126;11.616;2023-03-01T13:32:20;7.45;;;3.88;;
18364;SDS011;9309;52.126;11.616;2023-03-01T13:34:49;4.20;;;3.80;;
18364;SDS011;9309;52.126;11.616;2023-03-01T13:37:21;4.30;;;3.65;;
18364;SDS011;9309;52.126;11.616;2023-03-01T13:39:51;7.18;;;3.80;;
18364;SDS011;9309;52.126;11.616;2023-03-01T13:42:38;3.95;;;3.65;;
18364;SDS011;9309;52.126;11.616;2023-03-01T13:45:16;4.55;;;4.15;;
18364;SDS011;9309;52.126;11.616;2023-03-01T13:47:49;9.52;;;4.35;;
18364;SDS011;9309;52.126;11.616;2023-03-01T13:50:20;4.32;;;3.92;;
18364;SDS011;9309;52.126;11.616;2023-03-01T13:52:50;4.65;;;4.22;;
18364;SDS011;9309;52.126;11.616;2023-03-01T13:55:23;3.65;;;3.35;;
18364;SDS011;9309;52.126;11.616;2023-03-01T13:57:53;5.10;;;3.90;;
18364;SDS011;9309;52.126;11.616;2023-03-01T14:00:26;5.70;;;4.22;;
18364;SDS011;9309;52.126;11.616;2023-03-01T14:03:09;5.28;;;4.40;;
18364;SDS011;9309;52.126;11.616;2023-03-01T14:05:38;4.40;;;4.00;;
18364;SDS011;9309;52.126;11.616;2023-03-01T14:08:17;5.32;;;4.15;;
18364;SDS011;9309;52.126;11.616;2023-03-01T14:10:49;4.38;;;3.90;;
18364;SDS011;9309;52.126;11.616;2023-03-01T14:13:29;4.18;;;3.88;;
18364;SDS011;9309;52.126;11.616;2023-03-01T14:16:12;6.17;;;4.10;;
18364;SDS011;9309;52.126;11.616;2023-03-01T14:18:47;6.33;;;3.97;;
18364;SDS011;9309;52.126;11.616;2023-03-01T14:21:23;7.87;;;4.37;;
18364;SDS011;9309;52.126;11.616;2023-03-01T14:23:51;6.10;;;4.30;;
18364;SDS011;9309;52.126;11.616;2023-03-01T14:26:20;6.03;;;4.60;;
18364;SDS011;9309;52.126;11.616;2023-03-01T14:28:47;4.90;;;4.20;;
18364;SDS011;9309;52.126;11.616;2023-03-01T14:31:29;5.40;;;4.57;;
18364;SDS011;9309;52.126;11.616;2023-03-01T14:34:01;6.60;;;4.50;;
18364;SDS011;9309;52.126;11.616;2023-03-01T14:36:29;7.13;;;4.70;;
18364;SDS011;9309;52.126;11.616;2023-03-01T14:38:57;5.47;;;4.73;;
18364;SDS011;9309;52.126;11.616;2023-03-01T14:41:29;4.73;;;4.00;;
18364;SDS011;9309;52.126;11.616;2023-03-01T14:44:00;5.63;;;4.13;;
18364;SDS011;9309;52.126;11.616;2023-03-01T14:46:30;4.30;;;3.90;;
18364;SDS011;9309;52.126;11.616;2023-03-01T14:49:03;7.33;;;4.03;;
18364;SDS011;9309;52.126;11.616;2023-03-01T14:51:35;4.87;;;4.33;;
18364;SDS011;9309;52.126;11.616;2023-03-01T14:54:03;7.87;;;4.40;;
18364;SDS011;9309;52.126;11.616;2023-03-01T14:56:44;5.70;;;3.90;;
18364;SDS011;9309;52.126;11.616;2023-03-01T14:59:12;10.73;;;4.60;;
18364;SDS011;9309;52.126;11.616;2023-03-01T15:01:39;4.67;;;4.17;;
18364;SDS011;9309;52.126;11.616;2023-03-01T15:04:10;5.57;;;4.17;;
18364;SDS011;9309;52.126;11.616;2023-03-01T15:06:39;6.80;;;4.30;;
18364;SDS011;9309;52.126;11.616;2023-03-01T15:09:11;8.00;;;4.93;;